Time;durP1;ratioP1;P1;durP2;ratioP2;P2;SDS_P1;SDS_P2;PMS_P1;PMS_P2;Temp;Humidity;BMP_temperature;BMP_pressure;BME280_temperature;BME280_humidity;BME280_pressure;Samples;Min_cycle;Max_cycle;Signal;HPM_P1;HPM_P2
2023/08/06 00:00:00;;;;;;;5.70;3.37;;;;;;;;;;5101958;27;87485;-61
2023/08/06 00:02:29;;;;;;;5.00;3.03;;;;;;;;;;5101413;27;89665;-61
2023/08/06 00:04:57;;;;;;;7.43;3.00;;;;;;;;;;5095322;27;89252;-61
2023/08/06 00:07:26;;;;;;;4.53;2.43;;;;;;;;;;5081159;27;89029;-61
2023/08/06 00:09:54;;;;;;;9.00;3.63;;;;;;;;;;5080102;27;88062;-61
2023/08/06 00:12:23;;;;;;;6.33;3.60;;;;;;;;;;5081840;27;89619;-61
2023/08/06 00:14:53;;;;;;;7.73;3.20;;;;;;;;;;5081645;27;89305;-61
2023/08/06 00:17:21;;;;;;;4.93;2.50;;;;;;;;;;5076215;27;88803;-61
2023/08/06 00:19:50;;;;;;;3.43;2.43;;;;;;;;;;5081696;27;87497;-61
2023/08/06 00:22:19;;;;;;;6.90;3.20;;;;;;;;;;5099878;27;88559;-61
2023/08/06 00:24:47;;;;;;;4.70;2.83;;;;;;;;;;5092669;27;87644;-61
2023/08/06 00:27:15;;;;;;;4.43;2.80;;;;;;;;;;5097465;27;87723;-61
2023/08/06 00:29:44;;;;;;;3.60;2.77;;;;;;;;;;5076365;27;88196;-61
2023/08/06 00:32:14;;;;;;;3.60;2.27;;;;;;;;;;5070431;27;89774;-61
2023/08/06 00:34:42;;;;;;;3.20;2.83;;;;;;;;;;5078555;27;90405;-62
2023/08/06 00:37:11;;;;;;;4.80;2.80;;;;;;;;;;5063188;27;89840;-62
2023/08/06 00:39:39;;;;;;;5.03;2.30;;;;;;;;;;5069784;27;87624;-62
2023/08/06 00:42:08;;;;;;;5.17;2.47;;;;;;;;;;5095206;27;89976;-61
2023/08/06 00:44:36;;;;;;;5.90;2.07;;;;;;;;;;5092207;27;89069;-61
2023/08/06 00:47:05;;;;;;;3.60;2.30;;;;;;;;;;5089859;27;88735;-61
2023/08/06 00:49:35;;;;;;;3.60;2.20;;;;;;;;;;5073830;27;87646;-61
2023/08/06 00:52:03;;;;;;;2.57;2.13;;;;;;;;;;5069293;27;89707;-61
2023/08/06 00:54:32;;;;;;;7.40;1.93;;;;;;;;;;5067321;27;89035;-61
2023/08/06 00:57:00;;;;;;;4.30;2.10;;;;;;;;;;5077328;27;89059;-61
2023/08/06 00:59:29;;;;;;;3.10;2.37;;;;;;;;;;5068085;27;87942;-61
2023/08/06 01:01:58;;;;;;;2.43;1.67;;;;;;;;;;5075633;27;89695;-61
2023/08/06 01:04:27;;;;;;;3.80;2.17;;;;;;;;;;5071334;27;89177;-61
2023/08/06 01:07:08;;;;;;;3.33;1.57;;;;;;;;;;5079852;27;88759;-61
2023/08/06 01:09:38;;;;;;;2.77;2.13;;;;;;;;;;5074302;27;87604;-61
2023/08/06 01:12:08;;;;;;;3.73;1.70;;;;;;;;;;5079070;27;89662;-61
2023/08/06 01:14:39;;;;;;;3.10;1.47;;;;;;;;;;5078709;27;89071;-61
2023/08/06 01:17:08;;;;;;;4.50;2.07;;;;;;;;;;5093454;27;88648;-61
2023/08/06 01:19:36;;;;;;;2.57;1.80;;;;;;;;;;5077519;27;87654;-61
2023/08/06 01:22:06;;;;;;;2.63;1.77;;;;;;;;;;5072632;27;89802;-61
2023/08/06 01:24:35;;;;;;;2.87;1.70;;;;;;;;;;5075949;27;90039;-61
2023/08/06 01:27:05;;;;;;;2.17;1.40;;;;;;;;;;5078160;27;89845;-61
2023/08/06 01:29:35;;;;;;;1.70;1.60;;;;;;;;;;5073726;27;87418;-62
2023/08/06 01:32:04;;;;;;;1.50;1.40;;;;;;;;;;5080058;27;89714;-62
2023/08/06 01:34:33;;;;;;;1.27;1.17;;;;;;;;;;5083850;27;89022;-61
2023/08/06 01:37:01;;;;;;;2.07;1.23;;;;;;;;;;5083781;27;88818;-61
2023/08/06 01:39:31;;;;;;;3.40;1.30;;;;;;;;;;5065298;27;87599;-61
2023/08/06 01:42:00;;;;;;;1.63;1.50;;;;;;;;;;5079496;27;89683;-61
2023/08/06 01:44:28;;;;;;;1.87;1.30;;;;;;;;;;5078786;27;89116;-61
2023/08/06 01:46:57;;;;;;;1.83;1.23;;;;;;;;;;5082545;27;88964;-61
2023/08/06 01:49:25;;;;;;;2.63;1.90;;;;;;;;;;5078849;27;88016;-61
2023/08/06 01:51:54;;;;;;;2.23;1.83;;;;;;;;;;5079377;27;89438;-61
2023/08/06 01:54:22;;;;;;;1.40;1.27;;;;;;;;;;5078518;27;88978;-61
2023/08/06 01:56:52;;;;;;;3.80;1.37;;;;;;;;;;5078902;27;88682;-61
2023/08/06 01:59:21;;;;;;;1.33;1.23;;;;;;;;;;5078094;27;87422;-61
2023/08/06 02:01:49;;;;;;;3.00;1.70;;;;;;;;;;5078801;27;88611;-61
2023/08/06 02:04:18;;;;;;;2.00;0.90;;;;;;;;;;5078534;27;88765;-61
2023/08/06 02:06:47;;;;;;;2.13;1.17;;;;;;;;;;5078705;27;88802;-61
2023/08/06 02:09:15;;;;;;;1.20;1.03;;;;;;;;;;5078989;27;88476;-61
2023/08/06 02:11:44;;;;;;;1.40;1.20;;;;;;;;;;5078292;27;89618;-61
2023/08/06 02:14:14;;;;;;;2.23;1.37;;;;;;;;;;5062614;27;90074;-61
2023/08/06 02:16:42;;;;;;;3.17;1.50;;;;;;;;;;5060959;27;89389;-61
2023/08/06 02:19:11;;;;;;;1.17;1.03;;;;;;;;;;5077629;27;87704;-61
2023/08/06 02:21:39;;;;;;;1.73;1.33;;;;;;;;;;5074451;27;89670;-61
2023/08/06 02:24:08;;;;;;;1.40;1.30;;;;;;;;;;5067880;27;88633;-61
2023/08/06 02:26:36;;;;;;;1.17;0.93;;;;;;;;;;5078010;27;89995;-61
2023/08/06 02:29:04;;;;;;;1.60;1.27;;;;;;;;;;5078979;27;87562;-61
2023/08/06 02:31:34;;;;;;;2.03;1.43;;;;;;;;;;5079897;27;88326;-61
2023/08/06 02:34:03;;;;;;;2.23;1.60;;;;;;;;;;5077836;27;87964;-61
2023/08/06 02:36:32;;;;;;;1.77;1.20;;;;;;;;;;5077967;27;89013;-61
2023/08/06 02:39:00;;;;;;;1.83;1.33;;;;;;;;;;5075605;27;87872;-61
2023/08/06 02:41:29;;;;;;;2.13;1.70;;;;;;;;;;5080959;27;89539;-61
2023/08/06 02:43:57;;;;;;;1.50;1.40;;;;;;;;;;5076802;27;89188;-61
2023/08/06 02:46:26;;;;;;;2.63;1.93;;;;;;;;;;5083651;27;88844;-61
2023/08/06 02:48:55;;;;;;;2.83;2.47;;;;;;;;;;5086723;27;87678;-61
2023/08/06 02:51:24;;;;;;;3.20;2.27;;;;;;;;;;5098401;27;89326;-61
2023/08/06 02:53:52;;;;;;;2.27;1.97;;;;;;;;;;5067967;27;89118;-61
2023/08/06 02:56:21;;;;;;;2.80;2.30;;;;;;;;;;5078753;27;88695;-61
2023/08/06 02:58:49;;;;;;;4.73;2.57;;;;;;;;;;5071780;27;87741;-60
2023/08/06 03:01:18;;;;;;;4.77;2.13;;;;;;;;;;5078554;27;89657;-60
2023/08/06 03:03:46;;;;;;;5.13;3.07;;;;;;;;;;5068243;27;90117;-60
2023/08/06 03:06:16;;;;;;;5.07;2.50;;;;;;;;;;5088261;27;89769;-61
2023/08/06 03:08:45;;;;;;;3.13;2.40;;;;;;;;;;5089344;27;87237;-61
2023/08/06 03:11:14;;;;;;;5.10;3.47;;;;;;;;;;5108976;27;88553;-61
2023/08/06 03:13:42;;;;;;;4.00;3.00;;;;;;;;;;5086640;27;88989;-60
2023/08/06 03:16:11;;;;;;;5.00;2.83;;;;;;;;;;5082722;27;87591;-61
2023/08/06 03:18:39;;;;;;;2.97;2.37;;;;;;;;;;5088089;27;87479;-60
2023/08/06 03:21:08;;;;;;;6.10;2.50;;;;;;;;;;5093224;27;89647;-61
2023/08/06 03:23:38;;;;;;;4.77;2.90;;;;;;;;;;5079290;27;89234;-61
2023/08/06 03:26:06;;;;;;;4.37;2.77;;;;;;;;;;5067315;27;88884;-61
2023/08/06 03:28:35;;;;;;;3.57;2.50;;;;;;;;;;5085400;27;87851;-62
2023/08/06 03:31:03;;;;;;;3.37;2.23;;;;;;;;;;5080622;27;89656;-61
2023/08/06 03:33:32;;;;;;;3.43;2.23;;;;;;;;;;5081997;27;89039;-61
2023/08/06 03:36:00;;;;;;;3.33;2.17;;;;;;;;;;5084540;27;88530;-61
2023/08/06 03:38:29;;;;;;;4.13;2.20;;;;;;;;;;5096776;27;87637;-61
2023/08/06 03:40:58;;;;;;;4.93;2.50;;;;;;;;;;5081573;27;89649;-61
2023/08/06 03:43:27;;;;;;;3.17;2.67;;;;;;;;;;5064731;27;88841;-60
2023/08/06 03:45:55;;;;;;;3.73;2.67;;;;;;;;;;5073532;27;88762;-60
2023/08/06 03:48:24;;;;;;;3.83;2.60;;;;;;;;;;5087890;27;87372;-60
2023/08/06 03:50:52;;;;;;;4.67;3.00;;;;;;;;;;5071632;27;89617;-61
2023/08/06 03:53:21;;;;;;;4.73;2.77;;;;;;;;;;5082231;27;89884;-61
2023/08/06 03:55:49;;;;;;;2.63;1.93;;;;;;;;;;5081750;27;90086;-60
2023/08/06 03:58:19;;;;;;;3.17;2.27;;;;;;;;;;5066214;27;87646;-61
2023/08/06 04:00:47;;;;;;;2.90;2.50;;;;;;;;;;5083764;27;89440;-61
2023/08/06 04:03:16;;;;;;;3.43;2.13;;;;;;;;;;5083581;27;89049;-61
2023/08/06 04:05:45;;;;;;;2.73;2.10;;;;;;;;;;5083621;27;88774;-61
2023/08/06 04:08:13;;;;;;;3.47;2.80;;;;;;;;;;5070923;27;87644;-60
2023/08/06 04:10:42;;;;;;;3.40;2.00;;;;;;;;;;5075683;27;89676;-60
2023/08/06 04:13:10;;;;;;;2.93;1.87;;;;;;;;;;5083476;27;89160;-60
2023/08/06 04:15:40;;;;;;;2.47;1.90;;;;;;;;;;5083250;27;88828;-60
2023/08/06 04:18:08;;;;;;;3.07;1.97;;;;;;;;;;5082743;27;87798;-60
2023/08/06 04:20:37;;;;;;;2.40;1.77;;;;;;;;;;5082012;27;89692;-60
2023/08/06 04:23:07;;;;;;;2.80;1.83;;;;;;;;;;5087420;27;89014;-60
2023/08/06 04:25:36;;;;;;;2.63;1.70;;;;;;;;;;5070573;27;88663;-60
2023/08/06 04:28:04;;;;;;;4.47;2.20;;;;;;;;;;5084529;27;87756;-60
2023/08/06 04:30:33;;;;;;;1.73;1.40;;;;;;;;;;5079140;27;89707;-61
2023/08/06 04:33:03;;;;;;;2.33;1.70;;;;;;;;;;5080635;27;89249;-61
2023/08/06 04:35:31;;;;;;;2.90;1.77;;;;;;;;;;5082940;27;88922;-61
2023/08/06 04:38:00;;;;;;;2.10;1.80;;;;;;;;;;5073023;27;87496;-61
2023/08/06 04:40:28;;;;;;;6.77;1.67;;;;;;;;;;5074380;27;89782;-61
2023/08/06 04:42:57;;;;;;;2.83;1.60;;;;;;;;;;5089232;27;90117;-61
2023/08/06 04:45:25;;;;;;;2.77;2.10;;;;;;;;;;5079209;27;89818;-61
2023/08/06 04:47:54;;;;;;;2.63;1.70;;;;;;;;;;5080827;27;88833;-61
2023/08/06 04:50:24;;;;;;;1.57;1.30;;;;;;;;;;5094179;27;89743;-61
2023/08/06 04:52:52;;;;;;;2.83;1.47;;;;;;;;;;5089103;27;89068;-61
2023/08/06 04:55:22;;;;;;;3.00;1.60;;;;;;;;;;5074685;27;87474;-61
2023/08/06 04:57:50;;;;;;;2.70;1.67;;;;;;;;;;5085181;27;87764;-61
2023/08/06 05:00:19;;;;;;;1.70;1.13;;;;;;;;;;5082380;27;89489;-61
2023/08/06 05:02:47;;;;;;;2.23;1.53;;;;;;;;;;5080138;27;89119;-60
2023/08/06 05:05:16;;;;;;;1.77;1.07;;;;;;;;;;5093478;27;88759;-61
2023/08/06 05:07:46;;;;;;;1.80;1.43;;;;;;;;;;5082411;27;87971;-61
2023/08/06 05:10:15;;;;;;;2.23;1.20;;;;;;;;;;5070427;27;90761;-61
2023/08/06 05:12:43;;;;;;;2.03;1.30;;;;;;;;;;5076630;27;87801;-61
2023/08/06 05:15:12;;;;;;;1.67;1.27;;;;;;;;;;5077357;27;90982;-61
2023/08/06 05:17:40;;;;;;;2.93;1.40;;;;;;;;;;5078506;27;87526;-61
2023/08/06 05:20:09;;;;;;;2.70;1.80;;;;;;;;;;5075248;27;89551;-61
2023/08/06 05:22:38;;;;;;;1.50;0.97;;;;;;;;;;5079598;27;89137;-61
2023/08/06 05:25:08;;;;;;;1.23;1.10;;;;;;;;;;5081749;27;88923;-61
2023/08/06 05:27:37;;;;;;;0.83;0.80;;;;;;;;;;5071734;27;87551;-61
2023/08/06 05:30:06;;;;;;;1.67;1.10;;;;;;;;;;5079954;27;89902;-61
2023/08/06 05:32:35;;;;;;;1.37;0.93;;;;;;;;;;5078467;27;88745;-61
2023/08/06 05:35:03;;;;;;;0.93;0.90;;;;;;;;;;5086979;27;89729;-61
2023/08/06 05:37:31;;;;;;;1.77;1.00;;;;;;;;;;5077645;27;89326;-61
2023/08/06 05:40:00;;;;;;;1.27;1.07;;;;;;;;;;5082780;27;89300;-61
2023/08/06 05:42:30;;;;;;;1.50;0.97;;;;;;;;;;5071262;27;88949;-61
2023/08/06 05:44:59;;;;;;;1.63;1.10;;;;;;;;;;5082839;27;87729;-60
2023/08/06 05:47:27;;;;;;;1.63;1.30;;;;;;;;;;5085824;27;87731;-61
2023/08/06 05:49:55;;;;;;;2.13;0.90;;;;;;;;;;5062642;27;89597;-61
2023/08/06 05:52:24;;;;;;;0.80;0.80;;;;;;;;;;5061627;27;89442;-62
2023/08/06 05:54:52;;;;;;;1.10;0.80;;;;;;;;;;5077874;27;88749;-62
2023/08/06 05:57:21;;;;;;;1.63;1.00;;;;;;;;;;5074954;27;87984;-62
2023/08/06 05:59:51;;;;;;;1.07;0.80;;;;;;;;;;5080399;27;88589;-60
2023/08/06 06:02:19;;;;;;;0.60;0.60;;;;;;;;;;5075129;27;89923;-60
2023/08/06 06:04:47;;;;;;;0.67;0.67;;;;;;;;;;5058299;27;88857;-60
2023/08/06 06:07:16;;;;;;;0.80;0.50;;;;;;;;;;5072162;27;87449;-56
2023/08/06 06:09:44;;;;;;;0.60;0.50;;;;;;;;;;5080938;27;89947;-61
2023/08/06 06:12:13;;;;;;;1.13;0.80;;;;;;;;;;5074252;27;89025;-60
2023/08/06 06:14:41;;;;;;;2.40;0.70;;;;;;;;;;5079707;27;88772;-60
2023/08/06 06:17:11;;;;;;;0.57;0.53;;;;;;;;;;5078692;27;88407;-60
2023/08/06 06:19:39;;;;;;;1.27;0.53;;;;;;;;;;5070133;27;89689;-60
2023/08/06 06:22:08;;;;;;;0.93;0.63;;;;;;;;;;5077603;27;90213;-60
2023/08/06 06:24:37;;;;;;;2.33;0.90;;;;;;;;;;5078230;27;89743;-61
2023/08/06 06:27:06;;;;;;;0.47;0.47;;;;;;;;;;5071685;27;87755;-61
2023/08/06 06:29:34;;;;;;;1.13;0.67;;;;;;;;;;5066254;27;88485;-60
2023/08/06 06:32:02;;;;;;;1.13;0.70;;;;;;;;;;5076905;27;89144;-60
2023/08/06 06:34:32;;;;;;;1.73;1.00;;;;;;;;;;5057801;27;89492;-60
2023/08/06 06:37:01;;;;;;;1.70;0.97;;;;;;;;;;5065331;27;89567;-61
2023/08/06 06:39:29;;;;;;;1.97;1.27;;;;;;;;;;5070540;27;89659;-59
2023/08/06 06:41:58;;;;;;;2.90;1.73;;;;;;;;;;5066140;27;89041;-59
2023/08/06 06:44:26;;;;;;;2.53;1.63;;;;;;;;;;5057551;27;88757;-62
2023/08/06 06:46:54;;;;;;;4.67;2.80;;;;;;;;;;5057724;27;88206;-61
2023/08/06 06:49:23;;;;;;;3.00;1.87;;;;;;;;;;5072828;27;89637;-61
2023/08/06 06:51:53;;;;;;;4.57;2.67;;;;;;;;;;5077583;27;89373;-62
2023/08/06 06:54:22;;;;;;;3.30;2.20;;;;;;;;;;5061744;27;89304;-61
2023/08/06 06:56:50;;;;;;;5.70;2.30;;;;;;;;;;5064041;27;87513;-62
2023/08/06 06:59:18;;;;;;;4.73;2.57;;;;;;;;;;5057153;27;89758;-62
2023/08/06 07:01:47;;;;;;;3.97;2.73;;;;;;;;;;5056950;27;88940;-61
2023/08/06 07:04:15;;;;;;;4.33;2.80;;;;;;;;;;5075537;27;89505;-61
2023/08/06 07:06:44;;;;;;;3.77;2.37;;;;;;;;;;5063425;27;87651;-62
2023/08/06 07:09:14;;;;;;;4.43;2.93;;;;;;;;;;5059871;27;89643;-61
2023/08/06 07:11:43;;;;;;;3.67;1.90;;;;;;;;;;5066486;27;90075;-61
2023/08/06 07:14:12;;;;;;;5.20;2.67;;;;;;;;;;5059813;27;91115;-61
2023/08/06 07:16:40;;;;;;;3.50;2.60;;;;;;;;;;5068628;27;87516;-61
2023/08/06 07:19:09;;;;;;;4.83;2.80;;;;;;;;;;5065264;27;89722;-62
2023/08/06 07:21:37;;;;;;;2.83;2.23;;;;;;;;;;5067735;27;89003;-61
2023/08/06 07:24:06;;;;;;;5.03;2.70;;;;;;;;;;5063139;27;88890;-62
2023/08/06 07:26:36;;;;;;;4.90;3.33;;;;;;;;;;5079338;27;88179;-61
2023/08/06 07:29:04;;;;;;;6.47;3.60;;;;;;;;;;5089340;27;89601;-59
2023/08/06 07:31:33;;;;;;;4.73;3.27;;;;;;;;;;5073480;27;90415;-62
2023/08/06 07:34:01;;;;;;;5.83;2.70;;;;;;;;;;5067505;27;89358;-61
2023/08/06 07:36:30;;;;;;;5.60;3.00;;;;;;;;;;5078858;27;88804;-61
2023/08/06 07:38:59;;;;;;;5.00;3.13;;;;;;;;;;5056850;27;89667;-61
2023/08/06 07:41:27;;;;;;;5.20;3.33;;;;;;;;;;5069878;27;89299;-61
2023/08/06 07:43:57;;;;;;;4.97;3.47;;;;;;;;;;5076143;27;87742;-62
2023/08/06 07:46:26;;;;;;;8.87;4.27;;;;;;;;;;5072607;27;89199;-61
2023/08/06 07:48:54;;;;;;;7.70;4.00;;;;;;;;;;5059476;27;89656;-61
2023/08/06 07:51:22;;;;;;;6.83;3.37;;;;;;;;;;5068838;27;89411;-61
2023/08/06 07:53:51;;;;;;;7.43;4.00;;;;;;;;;;5073636;27;88840;-61
2023/08/06 07:56:19;;;;;;;7.77;4.17;;;;;;;;;;5078337;27;87686;-62
2023/08/06 07:58:48;;;;;;;6.27;4.33;;;;;;;;;;5097857;27;89683;-61
2023/08/06 08:01:18;;;;;;;5.30;4.20;;;;;;;;;;5097402;27;90259;-61
2023/08/06 08:03:46;;;;;;;8.43;4.70;;;;;;;;;;5068864;27;89979;-61
2023/08/06 08:06:15;;;;;;;8.07;5.17;;;;;;;;;;5089364;27;87572;-61
2023/08/06 08:08:43;;;;;;;8.23;4.70;;;;;;;;;;5083890;27;89948;-61
2023/08/06 08:11:12;;;;;;;8.83;5.43;;;;;;;;;;5094332;27;89038;-62
2023/08/06 08:13:40;;;;;;;9.60;5.50;;;;;;;;;;5070981;27;88738;-61
2023/08/06 08:16:08;;;;;;;11.27;5.97;;;;;;;;;;5080537;27;87643;-61
2023/08/06 08:18:38;;;;;;;9.03;5.50;;;;;;;;;;5077758;27;89637;-61
2023/08/06 08:21:07;;;;;;;9.63;6.20;;;;;;;;;;5081865;27;89061;-61
2023/08/06 08:23:35;;;;;;;9.83;6.13;;;;;;;;;;5086225;27;88799;-61
2023/08/06 08:26:04;;;;;;;11.03;6.17;;;;;;;;;;5078206;27;88046;-62
2023/08/06 08:28:33;;;;;;;9.87;5.63;;;;;;;;;;5101226;27;89325;-62
2023/08/06 08:31:01;;;;;;;9.57;5.63;;;;;;;;;;5083638;27;88920;-62
2023/08/06 08:33:29;;;;;;;8.47;5.40;;;;;;;;;;5100533;27;87572;-62
2023/08/06 08:35:59;;;;;;;15.00;7.37;;;;;;;;;;5098940;27;87403;-62
2023/08/06 08:38:28;;;;;;;13.27;7.47;;;;;;;;;;5086630;27;89804;-61
2023/08/06 08:40:57;;;;;;;13.27;7.97;;;;;;;;;;5072047;27;89056;-61
2023/08/06 08:43:25;;;;;;;8.70;5.77;;;;;;;;;;5070389;27;88929;-62
2023/08/06 08:45:55;;;;;;;10.57;6.17;;;;;;;;;;5068093;27;88898;-62
2023/08/06 08:48:24;;;;;;;10.43;6.00;;;;;;;;;;5072644;27;89556;-61
2023/08/06 08:50:52;;;;;;;10.67;6.87;;;;;;;;;;5070382;27;89938;-60
2023/08/06 08:53:22;;;;;;;12.87;7.00;;;;;;;;;;5079732;27;90000;-61
2023/08/06 08:55:51;;;;;;;10.23;6.93;;;;;;;;;;5080024;27;87475;-61
2023/08/06 08:58:19;;;;;;;11.93;6.83;;;;;;;;;;5071025;27;89539;-61
2023/08/06 09:00:48;;;;;;;7.83;5.70;;;;;;;;;;5069976;27;89134;-61
2023/08/06 09:03:17;;;;;;;7.80;4.83;;;;;;;;;;5079317;27;87673;-61
2023/08/06 09:05:46;;;;;;;8.40;5.20;;;;;;;;;;5080049;27;88364;-61
2023/08/06 09:08:17;;;;;;;9.03;5.10;;;;;;;;;;5076839;27;89653;-60
2023/08/06 09:10:47;;;;;;;8.63;5.00;;;;;;;;;;5078337;27;89034;-60
2023/08/06 09:13:15;;;;;;;7.43;4.50;;;;;;;;;;5078601;27;88870;-59
2023/08/06 09:15:45;;;;;;;6.47;4.00;;;;;;;;;;5078760;27;88015;-60
2023/08/06 09:18:13;;;;;;;8.53;4.67;;;;;;;;;;5068936;27;89643;-60
2023/08/06 09:20:43;;;;;;;7.33;4.50;;;;;;;;;;5079877;27;89469;-60
2023/08/06 09:23:11;;;;;;;7.63;4.80;;;;;;;;;;5080063;27;88129;-61
2023/08/06 09:25:41;;;;;;;6.87;3.60;;;;;;;;;;5067839;27;87557;-60
2023/08/06 09:28:10;;;;;;;5.63;3.50;;;;;;;;;;5070932;27;89610;-62
2023/08/06 09:30:39;;;;;;;7.07;3.80;;;;;;;;;;5066705;27;88974;-62
2023/08/06 09:33:11;;;;;;;5.33;3.80;;;;;;;;;;5066155;27;87566;-63
2023/08/06 09:35:40;;;;;;;7.50;3.77;;;;;;;;;;5067713;27;87661;-62
2023/08/06 09:38:09;;;;;;;9.13;3.37;;;;;;;;;;5067635;27;88682;-61
2023/08/06 09:40:38;;;;;;;6.03;3.57;;;;;;;;;;5081273;27;90148;-61
2023/08/06 09:43:06;;;;;;;5.03;3.70;;;;;;;;;;5098525;27;89731;-60
2023/08/06 09:45:37;;;;;;;4.87;3.30;;;;;;;;;;5085415;27;87454;-59
2023/08/06 09:48:05;;;;;;;6.07;3.43;;;;;;;;;;5062985;27;90009;-62
2023/08/06 09:50:36;;;;;;;3.87;3.10;;;;;;;;;;5075044;27;89273;-60
2023/08/06 09:53:05;;;;;;;4.33;2.43;;;;;;;;;;5087027;27;88833;-59
2023/08/06 09:55:34;;;;;;;10.43;2.97;;;;;;;;;;5079634;27;88208;-62
2023/08/06 09:58:02;;;;;;;5.50;3.10;;;;;;;;;;5077641;27;88526;-59
2023/08/06 10:00:33;;;;;;;12.53;2.90;;;;;;;;;;5065712;27;89395;-60
2023/08/06 10:03:07;;;;;;;8.57;2.83;;;;;;;;;;5082947;27;89076;-62
2023/08/06 10:05:35;;;;;;;9.00;2.60;;;;;;;;;;5072530;27;87980;-60
2023/08/06 10:08:04;;;;;;;5.23;2.10;;;;;;;;;;5079953;27;89648;-59
2023/08/06 10:10:33;;;;;;;11.83;2.70;;;;;;;;;;5078759;27;89140;-61
2023/08/06 10:15:47;;;;;;;5.67;3.27;;;;;;;;;;5099398;27;87686;-62
2023/08/06 10:18:20;;;;;;;6.20;2.57;;;;;;;;;;5090739;27;89701;-62
2023/08/06 10:20:49;;;;;;;2.60;1.90;;;;;;;;;;5079293;27;88864;-62
2023/08/06 10:23:20;;;;;;;4.60;1.63;;;;;;;;;;5078962;27;88954;-62
2023/08/06 10:25:49;;;;;;;6.47;2.20;;;;;;;;;;5074294;27;87551;-59
2023/08/06 10:28:18;;;;;;;2.53;1.30;;;;;;;;;;5085260;27;88398;-60
2023/08/06 10:30:47;;;;;;;1.30;1.10;;;;;;;;;;5086148;27;89814;-61
2023/08/06 10:33:16;;;;;;;3.97;1.27;;;;;;;;;;5081313;27;89503;-61
2023/08/06 10:35:49;;;;;;;2.63;1.40;;;;;;;;;;5083214;27;87612;-61
2023/08/06 10:38:18;;;;;;;3.00;1.03;;;;;;;;;;5077988;27;88434;-61
2023/08/06 10:40:50;;;;;;;3.03;1.00;;;;;;;;;;5076064;27;88913;-61
2023/08/06 10:43:26;;;;;;;2.97;1.00;;;;;;;;;;5073220;27;89083;-61
2023/08/06 10:45:55;;;;;;;4.30;1.10;;;;;;;;;;5075573;27;87548;-61
2023/08/06 10:48:32;;;;;;;2.17;1.10;;;;;;;;;;5077308;27;88892;-61
2023/08/06 10:51:02;;;;;;;1.03;0.60;;;;;;;;;;5075808;27;89207;-61
2023/08/06 10:53:31;;;;;;;3.70;0.83;;;;;;;;;;5078366;27;88447;-62
2023/08/06 10:56:02;;;;;;;0.57;0.57;;;;;;;;;;5067928;27;89299;-61
2023/08/06 10:58:33;;;;;;;0.60;0.60;;;;;;;;;;5064794;27;89735;-62
2023/08/06 11:01:01;;;;;;;0.60;0.60;;;;;;;;;;5077612;27;89423;-62
2023/08/06 11:03:30;;;;;;;2.10;0.60;;;;;;;;;;5076243;27;88850;-62
2023/08/06 11:05:59;;;;;;;1.50;0.60;;;;;;;;;;5075262;27;89056;-61
2023/08/06 11:08:29;;;;;;;4.50;0.73;;;;;;;;;;5071464;27;89881;-62
2023/08/06 11:10:58;;;;;;;8.03;1.23;;;;;;;;;;5077911;27;89114;-62
2023/08/06 11:13:32;;;;;;;1.30;0.90;;;;;;;;;;5071472;27;88758;-62
2023/08/06 11:16:00;;;;;;;4.13;1.20;;;;;;;;;;5073520;27;87885;-60
2023/08/06 11:18:29;;;;;;;1.00;0.77;;;;;;;;;;5072489;27;89579;-59
2023/08/06 11:20:57;;;;;;;2.43;0.80;;;;;;;;;;5077405;27;90374;-60
2023/08/06 11:23:29;;;;;;;1.87;1.07;;;;;;;;;;5077530;27;89429;-59
2023/08/06 11:25:58;;;;;;;1.57;0.70;;;;;;;;;;5077420;27;87929;-59
2023/08/06 11:28:26;;;;;;;1.10;0.73;;;;;;;;;;5077833;27;92767;-59
2023/08/06 11:30:56;;;;;;;2.00;1.00;;;;;;;;;;5077505;27;89101;-59
2023/08/06 11:33:26;;;;;;;2.20;0.80;;;;;;;;;;5077387;27;88760;-59
2023/08/06 11:35:55;;;;;;;1.70;1.03;;;;;;;;;;5077597;27;87547;-59
2023/08/06 11:38:26;;;;;;;2.70;0.70;;;;;;;;;;5077505;27;88308;-59
2023/08/06 11:40:56;;;;;;;5.57;1.13;;;;;;;;;;5078145;27;89185;-60
2023/08/06 11:43:24;;;;;;;1.57;0.63;;;;;;;;;;5077293;27;88959;-60
2023/08/06 11:45:54;;;;;;;1.77;1.00;;;;;;;;;;5077418;27;88467;-59
2023/08/06 11:48:23;;;;;;;6.70;1.23;;;;;;;;;;5079419;27;89961;-59
2023/08/06 11:50:51;;;;;;;1.40;0.67;;;;;;;;;;5080504;27;89122;-60
2023/08/06 11:53:20;;;;;;;1.93;0.70;;;;;;;;;;5080877;27;88800;-59
2023/08/06 11:55:48;;;;;;;3.10;0.70;;;;;;;;;;5081277;27;87726;-59
2023/08/06 11:58:18;;;;;;;0.77;0.77;;;;;;;;;;5081311;27;89433;-59
2023/08/06 12:00:47;;;;;;;4.30;0.93;;;;;;;;;;5081406;27;89115;-59
2023/08/06 12:03:15;;;;;;;4.17;0.97;;;;;;;;;;5081122;27;89075;-59
2023/08/06 12:05:45;;;;;;;3.10;0.97;;;;;;;;;;5081672;27;88289;-59
2023/08/06 12:08:14;;;;;;;1.30;0.80;;;;;;;;;;5080476;27;89680;-59
2023/08/06 12:10:42;;;;;;;0.70;0.60;;;;;;;;;;5079706;27;89890;-59
2023/08/06 12:13:11;;;;;;;1.60;0.87;;;;;;;;;;5081213;27;88458;-59
2023/08/06 12:15:41;;;;;;;2.20;0.70;;;;;;;;;;5081542;27;87968;-59
2023/08/06 12:18:09;;;;;;;1.13;0.70;;;;;;;;;;5080836;27;89652;-59
2023/08/06 12:20:38;;;;;;;0.83;0.70;;;;;;;;;;5081020;27;89119;-59
2023/08/06 12:23:06;;;;;;;0.70;0.70;;;;;;;;;;5080314;27;88811;-59
2023/08/06 12:25:35;;;;;;;1.13;0.70;;;;;;;;;;5080459;27;88457;-59
2023/08/06 12:28:05;;;;;;;2.87;0.50;;;;;;;;;;5081038;27;89433;-59
2023/08/06 12:30:34;;;;;;;1.40;0.87;;;;;;;;;;5080875;27;88950;-59
2023/08/06 12:33:04;;;;;;;1.00;0.80;;;;;;;;;;5080694;27;88984;-59
2023/08/06 12:35:32;;;;;;;0.40;0.40;;;;;;;;;;5080448;27;88142;-59
2023/08/06 12:38:01;;;;;;;1.57;0.83;;;;;;;;;;5080244;27;89898;-59
2023/08/06 12:40:29;;;;;;;0.60;0.60;;;;;;;;;;5080162;27;88975;-59
2023/08/06 12:43:05;;;;;;;3.57;0.63;;;;;;;;;;5079539;27;88812;-60
2023/08/06 12:45:34;;;;;;;2.00;1.00;;;;;;;;;;5080654;27;87300;-59
2023/08/06 12:48:04;;;;;;;0.57;0.40;;;;;;;;;;5079707;27;89644;-59
2023/08/06 12:50:34;;;;;;;0.83;0.67;;;;;;;;;;5080371;27;88073;-59
2023/08/06 12:53:04;;;;;;;1.33;0.50;;;;;;;;;;5079808;27;88925;-59
2023/08/06 12:55:33;;;;;;;1.60;0.50;;;;;;;;;;5079806;27;88349;-59
2023/08/06 12:58:01;;;;;;;0.63;0.63;;;;;;;;;;5079908;27;89649;-59
2023/08/06 13:00:30;;;;;;;3.53;0.53;;;;;;;;;;5078279;27;89958;-59
2023/08/06 13:02:59;;;;;;;0.90;0.80;;;;;;;;;;5080047;27;88608;-59
2023/08/06 13:05:29;;;;;;;0.80;0.70;;;;;;;;;;5079389;27;87516;-59
2023/08/06 13:07:57;;;;;;;1.60;0.60;;;;;;;;;;5079327;27;89683;-59
2023/08/06 13:10:27;;;;;;;3.10;0.50;;;;;;;;;;5079874;27;89072;-59
2023/08/06 13:12:55;;;;;;;1.07;0.47;;;;;;;;;;5079653;27;91475;-59
2023/08/06 13:15:24;;;;;;;1.53;0.47;;;;;;;;;;5079775;27;87641;-59
2023/08/06 13:17:52;;;;;;;3.67;0.73;;;;;;;;;;5079834;27;88145;-59
2023/08/06 13:20:22;;;;;;;0.73;0.60;;;;;;;;;;5079851;27;89066;-59
2023/08/06 13:22:53;;;;;;;1.00;0.93;;;;;;;;;;5080050;27;88226;-59
2023/08/06 13:25:22;;;;;;;2.53;0.90;;;;;;;;;;5079947;27;88447;-59
2023/08/06 13:27:51;;;;;;;1.17;0.97;;;;;;;;;;5079771;27;89582;-59
2023/08/06 13:30:20;;;;;;;2.63;0.87;;;;;;;;;;5080086;27;89011;-59
2023/08/06 13:32:48;;;;;;;1.43;0.83;;;;;;;;;;5078787;27;88838;-59
2023/08/06 13:35:17;;;;;;;3.70;0.83;;;;;;;;;;5079606;27;87698;-59
2023/08/06 13:37:47;;;;;;;3.10;1.13;;;;;;;;;;5079244;27;89678;-59
2023/08/06 13:40:17;;;;;;;2.73;0.53;;;;;;;;;;5078813;27;89130;-59
2023/08/06 13:42:46;;;;;;;2.27;0.97;;;;;;;;;;5078560;27;88399;-59
2023/08/06 13:45:14;;;;;;;1.03;0.70;;;;;;;;;;5079404;27;87556;-59
2023/08/06 13:47:43;;;;;;;1.20;0.70;;;;;;;;;;5079358;27;88697;-59
2023/08/06 13:50:11;;;;;;;1.70;0.47;;;;;;;;;;5078315;27;90255;-59
2023/08/06 13:52:40;;;;;;;3.47;1.00;;;;;;;;;;5079383;27;89729;-59
2023/08/06 13:55:09;;;;;;;1.53;0.77;;;;;;;;;;5079102;27;87436;-59
2023/08/06 13:57:39;;;;;;;2.63;0.77;;;;;;;;;;5078920;27;89645;-59
2023/08/06 14:00:07;;;;;;;1.83;0.50;;;;;;;;;;5079018;27;88888;-59
2023/08/06 14:02:36;;;;;;;0.33;0.27;;;;;;;;;;5078749;27;88767;-59
2023/08/06 14:05:05;;;;;;;2.73;0.70;;;;;;;;;;5079364;27;87806;-59
2023/08/06 14:07:33;;;;;;;2.23;0.50;;;;;;;;;;5079164;27;89683;-59
2023/08/06 14:10:01;;;;;;;1.70;0.60;;;;;;;;;;5079200;27;89124;-59
2023/08/06 14:12:30;;;;;;;0.63;0.40;;;;;;;;;;5078095;27;88845;-59
2023/08/06 14:15:00;;;;;;;2.20;0.77;;;;;;;;;;5078281;27;88493;-60
2023/08/06 14:17:28;;;;;;;3.80;0.60;;;;;;;;;;5078715;27;89882;-59
2023/08/06 14:19:57;;;;;;;1.77;0.60;;;;;;;;;;5078577;27;88079;-59
2023/08/06 14:22:25;;;;;;;1.47;0.40;;;;;;;;;;5079102;27;88715;-59
2023/08/06 14:24:54;;;;;;;1.33;0.53;;;;;;;;;;5078249;27;87674;-59
2023/08/06 14:27:23;;;;;;;2.10;0.73;;;;;;;;;;5078176;27;89639;-59
2023/08/06 14:29:51;;;;;;;0.80;0.50;;;;;;;;;;5078662;27;88848;-59
2023/08/06 14:32:21;;;;;;;2.60;1.30;;;;;;;;;;5078185;27;88850;-59
2023/08/06 14:34:50;;;;;;;0.80;0.50;;;;;;;;;;5078666;27;87858;-60
2023/08/06 14:37:18;;;;;;;1.33;0.43;;;;;;;;;;5078774;27;88362;-59
2023/08/06 14:39:47;;;;;;;0.83;0.73;;;;;;;;;;5077975;27;89632;-59
2023/08/06 14:42:15;;;;;;;1.07;0.50;;;;;;;;;;5078194;27;89699;-59
2023/08/06 14:44:44;;;;;;;0.60;0.50;;;;;;;;;;5078103;27;87571;-59
2023/08/06 14:47:12;;;;;;;3.30;0.90;;;;;;;;;;5078440;27;89638;-59
2023/08/06 14:49:42;;;;;;;0.57;0.40;;;;;;;;;;5077845;27;89328;-60
2023/08/06 14:52:10;;;;;;;2.10;0.60;;;;;;;;;;5078321;27;88604;-59
2023/08/06 14:54:39;;;;;;;1.20;0.80;;;;;;;;;;5078397;27;87995;-59